sensor_id;sensor_type;location;lat;lon;timestamp;pressure;altitude;pressure_sealevel;temperature;humidity
54329;BME280;40710;51.120;13.136;2022-09-09T00:01:58;98961.91;;;19.20;58.41
54329;BME280;40710;51.120;13.136;2022-09-09T00:04:30;98975.66;;;18.19;59.49
54329;BME280;40710;51.120;13.136;2022-09-09T00:09:57;98992.50;;;17.29;64.32
54329;BME280;40710;51.120;13.136;2022-09-09T00:15:22;98987.06;;;17.30;64.17
54329;BME280;40710;51.120;13.136;2022-09-09T00:20:39;99003.47;;;17.14;64.63
54329;BME280;40710;51.120;13.136;2022-09-09T00:23:12;98997.38;;;17.24;64.35
54329;BME280;40710;51.120;13.136;2022-09-09T00:28:18;98964.16;;;18.28;59.66
54329;BME280;40710;51.120;13.136;2022-09-09T00:30:43;98972.63;;;17.64;62.90
54329;BME280;40710;51.120;13.136;2022-09-09T00:33:12;98986.19;;;17.30;64.04
54329;BME280;40710;51.120;13.136;2022-09-09T00:35:44;98988.78;;;17.41;63.88
54329;BME280;40710;51.120;13.136;2022-09-09T00:38:39;98978.03;;;17.43;63.95
54329;BME280;40710;51.120;13.136;2022-09-09T00:41:11;98984.56;;;17.38;63.70
54329;BME280;40710;51.120;13.136;2022-09-09T00:43:40;98988.34;;;17.36;64.00
54329;BME280;40710;51.120;13.136;2022-09-09T00:57:04;98981.75;;;17.30;64.08
54329;BME280;40710;51.120;13.136;2022-09-09T00:59:48;98978.28;;;17.39;63.72
54329;BME280;40710;51.120;13.136;2022-09-09T01:02:29;98974.88;;;17.28;64.11
54329;BME280;40710;51.120;13.136;2022-09-09T01:05:04;98966.00;;;17.48;63.33
54329;BME280;40710;51.120;13.136;2022-09-09T01:07:31;98973.72;;;17.20;63.69
54329;BME280;40710;51.120;13.136;2022-09-09T01:10:00;98978.69;;;17.04;65.11
54329;BME280;40710;51.120;13.136;2022-09-09T01:12:38;98974.88;;;17.28;64.02
54329;BME280;40710;51.120;13.136;2022-09-09T01:15:10;98980.50;;;17.34;63.89
54329;BME280;40710;51.120;13.136;2022-09-09T01:21:22;98948.78;;;18.51;60.25
54329;BME280;40710;51.120;13.136;2022-09-09T01:24:26;98953.25;;;18.41;60.42
54329;BME280;40710;51.120;13.136;2022-09-09T01:26:54;98946.09;;;18.51;59.93
54329;BME280;40710;51.120;13.136;2022-09-09T01:29:21;98954.50;;;18.57;59.68
54329;BME280;40710;51.120;13.136;2022-09-09T01:31:59;98956.03;;;18.49;59.97
54329;BME280;40710;51.120;13.136;2022-09-09T01:34:27;98958.69;;;18.49;60.34
54329;BME280;40710;51.120;13.136;2022-09-09T01:37:02;98957.13;;;18.66;59.26
54329;BME280;40710;51.120;13.136;2022-09-09T01:39:28;98956.59;;;18.33;60.44
54329;BME280;40710;51.120;13.136;2022-09-09T01:41:54;98952.66;;;18.57;59.69
54329;BME280;40710;51.120;13.136;2022-09-09T01:44:20;98954.09;;;18.42;60.22
54329;BME280;40710;51.120;13.136;2022-09-09T01:46:45;98948.06;;;18.40;59.76
54329;BME280;40710;51.120;13.136;2022-09-09T01:49:09;98959.97;;;18.16;60.52
54329;BME280;40710;51.120;13.136;2022-09-09T01:51:36;98957.72;;;18.21;60.49
54329;BME280;40710;51.120;13.136;2022-09-09T01:54:02;98961.50;;;18.28;60.47
54329;BME280;40710;51.120;13.136;2022-09-09T02:01:50;98976.19;;;17.03;64.49
54329;BME280;40710;51.120;13.136;2022-09-09T02:04:37;98978.97;;;17.01;64.48
54329;BME280;40710;51.120;13.136;2022-09-09T02:07:02;98989.50;;;16.91;65.20
54329;BME280;40710;51.120;13.136;2022-09-09T02:09:29;98984.00;;;17.04;64.35
54329;BME280;40710;51.120;13.136;2022-09-09T02:12:02;98988.09;;;16.87;64.97
54329;BME280;40710;51.120;13.136;2022-09-09T02:14:35;98988.22;;;16.86;65.28
54329;BME280;40710;51.120;13.136;2022-09-09T02:17:09;98982.97;;;16.74;65.11
54329;BME280;40710;51.120;13.136;2022-09-09T02:19:56;98978.75;;;16.93;65.05
54329;BME280;40710;51.120;13.136;2022-09-09T02:22:24;98977.25;;;17.00;64.34
54329;BME280;40710;51.120;13.136;2022-09-09T02:24:52;98992.34;;;16.78;65.06
54329;BME280;40710;51.120;13.136;2022-09-09T02:27:20;98979.03;;;16.90;64.70
54329;BME280;40710;51.120;13.136;2022-09-09T02:29:46;98961.25;;;18.22;60.75
54329;BME280;40710;51.120;13.136;2022-09-09T02:32:14;98945.25;;;18.51;59.54
54329;BME280;40710;51.120;13.136;2022-09-09T02:34:43;98957.47;;;18.14;60.11
54329;BME280;40710;51.120;13.136;2022-09-09T02:37:10;98953.81;;;18.45;59.65
54329;BME280;40710;51.120;13.136;2022-09-09T02:39:35;98950.25;;;18.74;58.57
54329;BME280;40710;51.120;13.136;2022-09-09T02:41:59;98946.03;;;18.81;58.59
54329;BME280;40710;51.120;13.136;2022-09-09T02:44:24;98947.03;;;18.80;58.21
54329;BME280;40710;51.120;13.136;2022-09-09T02:52:14;98949.75;;;18.41;59.76
54329;BME280;40710;51.120;13.136;2022-09-09T02:54:43;98953.19;;;18.70;58.82
54329;BME280;40710;51.120;13.136;2022-09-09T02:57:12;98955.22;;;18.39;59.72
54329;BME280;40710;51.120;13.136;2022-09-09T02:59:38;98960.25;;;18.32;60.08
54329;BME280;40710;51.120;13.136;2022-09-09T03:02:03;98951.25;;;18.73;58.49
54329;BME280;40710;51.120;13.136;2022-09-09T03:04:28;98950.88;;;18.48;59.24
54329;BME280;40710;51.120;13.136;2022-09-09T03:06:52;98944.09;;;18.73;58.74
54329;BME280;40710;51.120;13.136;2022-09-09T03:09:16;98944.81;;;18.65;58.63
54329;BME280;40710;51.120;13.136;2022-09-09T03:11:41;98948.81;;;18.79;58.64
54329;BME280;40710;51.120;13.136;2022-09-09T03:14:05;98946.75;;;18.63;58.62
54329;BME280;40710;51.120;13.136;2022-09-09T03:16:30;98955.34;;;18.57;59.13
54329;BME280;40710;51.120;13.136;2022-09-09T03:18:57;98952.81;;;18.65;59.57
54329;BME280;40710;51.120;13.136;2022-09-09T03:21:21;98957.56;;;18.62;59.35
54329;BME280;40710;51.120;13.136;2022-09-09T03:23:46;98954.91;;;18.42;59.66
54329;BME280;40710;51.120;13.136;2022-09-09T03:26:10;98950.56;;;18.61;59.89
54329;BME280;40710;51.120;13.136;2022-09-09T03:28:35;98944.09;;;18.83;58.90
54329;BME280;40710;51.120;13.136;2022-09-09T03:31:04;98944.66;;;18.86;58.61
54329;BME280;40710;51.120;13.136;2022-09-09T03:33:29;98953.50;;;18.67;59.23
54329;BME280;40710;51.120;13.136;2022-09-09T03:35:54;98954.88;;;18.71;58.84
54329;BME280;40710;51.120;13.136;2022-09-09T03:38:20;98963.31;;;18.47;59.67
54329;BME280;40710;51.120;13.136;2022-09-09T03:40:52;98958.41;;;18.62;59.60
54329;BME280;40710;51.120;13.136;2022-09-09T03:43:19;98959.44;;;18.32;60.08
54329;BME280;40710;51.120;13.136;2022-09-09T03:45:46;98958.03;;;18.08;61.14
54329;BME280;40710;51.120;13.136;2022-09-09T03:48:15;98946.53;;;18.37;60.05
54329;BME280;40710;51.120;13.136;2022-09-09T03:50:44;98948.03;;;18.49;59.51
54329;BME280;40710;51.120;13.136;2022-09-09T03:53:08;98960.81;;;18.36;60.07
54329;BME280;40710;51.120;13.136;2022-09-09T03:55:33;98959.66;;;18.58;59.31
54329;BME280;40710;51.120;13.136;2022-09-09T03:57:57;98960.38;;;18.50;59.67
54329;BME280;40710;51.120;13.136;2022-09-09T04:00:22;98964.72;;;18.42;59.84
54329;BME280;40710;51.120;13.136;2022-09-09T04:02:46;98956.78;;;18.32;59.99
54329;BME280;40710;51.120;13.136;2022-09-09T04:05:11;98963.06;;;18.41;60.11
54329;BME280;40710;51.120;13.136;2022-09-09T04:07:35;98963.88;;;18.31;60.06
54329;BME280;40710;51.120;13.136;2022-09-09T04:10:00;98964.75;;;18.22;60.26
54329;BME280;40710;51.120;13.136;2022-09-09T04:12:24;98973.69;;;18.21;60.21
54329;BME280;40710;51.120;13.136;2022-09-09T04:14:48;98969.91;;;18.14;60.33
54329;BME280;40710;51.120;13.136;2022-09-09T04:17:13;98961.09;;;18.04;60.64
54329;BME280;40710;51.120;13.136;2022-09-09T04:19:37;98978.25;;;17.80;61.06
54329;BME280;40710;51.120;13.136;2022-09-09T04:22:02;98971.31;;;17.89;61.32
54329;BME280;40710;51.120;13.136;2022-09-09T04:24:26;98967.25;;;18.04;60.90
54329;BME280;40710;51.120;13.136;2022-09-09T04:26:51;98965.56;;;18.03;60.78
54329;BME280;40710;51.120;13.136;2022-09-09T04:29:16;98965.03;;;18.09;60.54
54329;BME280;40710;51.120;13.136;2022-09-09T04:31:41;98970.19;;;18.01;60.82
54329;BME280;40710;51.120;13.136;2022-09-09T04:34:06;98973.44;;;18.14;60.28
54329;BME280;40710;51.120;13.136;2022-09-09T04:36:31;98977.19;;;18.12;60.78
54329;BME280;40710;51.120;13.136;2022-09-09T04:38:56;98977.88;;;17.94;60.75
54329;BME280;40710;51.120;13.136;2022-09-09T04:41:20;98974.41;;;18.13;60.41
54329;BME280;40710;51.120;13.136;2022-09-09T04:43:45;98974.38;;;18.04;60.80
54329;BME280;40710;51.120;13.136;2022-09-09T04:46:09;98980.69;;;18.03;62.30
54329;BME280;40710;51.120;13.136;2022-09-09T04:48:34;98970.03;;;18.12;61.11
54329;BME280;40710;51.120;13.136;2022-09-09T04:51:11;98961.25;;;18.22;60.07
54329;BME280;40710;51.120;13.136;2022-09-09T04:53:35;98954.38;;;18.39;59.51
54329;BME280;40710;51.120;13.136;2022-09-09T04:56:04;98950.84;;;18.58;58.96
54329;BME280;40710;51.120;13.136;2022-09-09T04:58:29;98962.72;;;18.63;59.34
54329;BME280;40710;51.120;13.136;2022-09-09T05:00:53;98958.00;;;18.57;59.33
54329;BME280;40710;51.120;13.136;2022-09-09T05:03:17;98963.19;;;18.20;60.05
54329;BME280;40710;51.120;13.136;2022-09-09T05:05:42;98966.16;;;18.17;59.54
54329;BME280;40710;51.120;13.136;2022-09-09T05:08:08;98984.19;;;18.23;59.92
54329;BME280;40710;51.120;13.136;2022-09-09T05:10:33;98980.69;;;18.22;60.11
54329;BME280;40710;51.120;13.136;2022-09-09T05:12:58;98984.03;;;18.05;60.77
54329;BME280;40710;51.120;13.136;2022-09-09T05:15:22;98988.06;;;17.89;60.87
54329;BME280;40710;51.120;13.136;2022-09-09T05:17:47;98987.13;;;18.10;60.66
54329;BME280;40710;51.120;13.136;2022-09-09T05:20:11;98987.16;;;18.39;59.83
54329;BME280;40710;51.120;13.136;2022-09-09T05:22:36;98990.38;;;18.23;60.13
54329;BME280;40710;51.120;13.136;2022-09-09T05:25:00;98985.75;;;18.45;60.27
54329;BME280;40710;51.120;13.136;2022-09-09T05:27:25;99021.81;;;16.96;62.86
54329;BME280;40710;51.120;13.136;2022-09-09T05:29:50;99015.41;;;18.01;61.68
54329;BME280;40710;51.120;13.136;2022-09-09T05:32:14;98998.63;;;18.40;59.93
54329;BME280;40710;51.120;13.136;2022-09-09T05:34:41;98989.94;;;18.57;59.18
54329;BME280;40710;51.120;13.136;2022-09-09T05:37:06;98993.09;;;18.80;58.57
54329;BME280;40710;51.120;13.136;2022-09-09T05:39:31;98979.50;;;18.93;58.10
54329;BME280;40710;51.120;13.136;2022-09-09T05:41:57;98977.72;;;18.84;58.32
54329;BME280;40710;51.120;13.136;2022-09-09T05:44:21;98994.13;;;18.50;59.60
54329;BME280;40710;51.120;13.136;2022-09-09T05:46:48;98992.41;;;18.68;59.11
54329;BME280;40710;51.120;13.136;2022-09-09T05:49:13;98991.84;;;18.84;59.13
54329;BME280;40710;51.120;13.136;2022-09-09T05:51:39;98987.16;;;19.16;58.32
54329;BME280;40710;51.120;13.136;2022-09-09T05:54:04;98992.16;;;19.29;59.25
54329;BME280;40710;51.120;13.136;2022-09-09T05:56:29;98987.59;;;19.11;59.07
54329;BME280;40710;51.120;13.136;2022-09-09T05:58:54;98990.34;;;19.29;58.42
54329;BME280;40710;51.120;13.136;2022-09-09T06:01:21;98986.50;;;19.41;57.59
54329;BME280;40710;51.120;13.136;2022-09-09T06:03:47;98990.13;;;19.40;57.48
54329;BME280;40710;51.120;13.136;2022-09-09T06:06:17;98990.91;;;19.23;57.69
54329;BME280;40710;51.120;13.136;2022-09-09T06:08:44;98988.09;;;19.24;57.75
54329;BME280;40710;51.120;13.136;2022-09-09T06:11:11;98989.97;;;19.52;57.34
54329;BME280;40710;51.120;13.136;2022-09-09T06:13:36;98989.59;;;19.37;57.71
54329;BME280;40710;51.120;13.136;2022-09-09T06:16:03;98993.69;;;19.31;57.73
54329;BME280;40710;51.120;13.136;2022-09-09T06:18:28;98994.53;;;19.59;57.05
54329;BME280;40710;51.120;13.136;2022-09-09T06:20:58;98994.78;;;19.66;56.96
54329;BME280;40710;51.120;13.136;2022-09-09T06:23:25;98990.94;;;19.51;57.25
54329;BME280;40710;51.120;13.136;2022-09-09T06:25:49;98986.81;;;19.56;57.38
54329;BME280;40710;51.120;13.136;2022-09-09T06:28:15;98991.19;;;19.85;56.65
54329;BME280;40710;51.120;13.136;2022-09-09T06:30:39;98991.09;;;19.77;57.04
54329;BME280;40710;51.120;13.136;2022-09-09T06:33:04;98984.22;;;20.20;55.96
54329;BME280;40710;51.120;13.136;2022-09-09T06:35:28;98986.13;;;20.28;55.60
54329;BME280;40710;51.120;13.136;2022-09-09T06:37:52;98989.34;;;19.58;57.51
54329;BME280;40710;51.120;13.136;2022-09-09T06:40:17;98990.38;;;19.85;56.64
54329;BME280;40710;51.120;13.136;2022-09-09T06:42:41;98991.59;;;19.90;56.62
54329;BME280;40710;51.120;13.136;2022-09-09T06:45:06;98992.91;;;20.04;56.62
54329;BME280;40710;51.120;13.136;2022-09-09T06:47:31;98987.56;;;20.40;55.79
54329;BME280;40710;51.120;13.136;2022-09-09T06:49:55;98984.34;;;20.72;55.59
54329;BME280;40710;51.120;13.136;2022-09-09T06:52:20;98994.97;;;20.46;55.39
54329;BME280;40710;51.120;13.136;2022-09-09T06:54:45;98983.09;;;20.85;54.79
54329;BME280;40710;51.120;13.136;2022-09-09T06:57:09;98979.34;;;20.95;54.59
54329;BME280;40710;51.120;13.136;2022-09-09T06:59:33;98969.34;;;21.32;53.75
54329;BME280;40710;51.120;13.136;2022-09-09T07:01:58;98969.00;;;21.35;53.65
54329;BME280;40710;51.120;13.136;2022-09-09T07:04:22;98965.63;;;21.59;53.23
54329;BME280;40710;51.120;13.136;2022-09-09T07:06:46;98960.00;;;21.79;52.52
54329;BME280;40710;51.120;13.136;2022-09-09T07:09:13;98964.38;;;21.88;52.81
54329;BME280;40710;51.120;13.136;2022-09-09T07:11:41;98965.72;;;22.08;51.95
54329;BME280;40710;51.120;13.136;2022-09-09T07:14:05;98961.13;;;22.27;51.95
54329;BME280;40710;51.120;13.136;2022-09-09T07:16:30;98969.09;;;22.19;52.09
54329;BME280;40710;51.120;13.136;2022-09-09T07:18:57;98964.97;;;22.33;51.99
54329;BME280;40710;51.120;13.136;2022-09-09T07:21:21;98966.81;;;22.32;52.03
54329;BME280;40710;51.120;13.136;2022-09-09T07:23:46;98971.81;;;22.27;52.29
54329;BME280;40710;51.120;13.136;2022-09-09T07:26:12;98971.31;;;22.48;52.04
54329;BME280;40710;51.120;13.136;2022-09-09T07:28:37;98959.41;;;22.83;51.21
54329;BME280;40710;51.120;13.136;2022-09-09T07:31:02;98971.66;;;22.28;52.10
54329;BME280;40710;51.120;13.136;2022-09-09T07:33:27;98972.50;;;22.62;52.30
54329;BME280;40710;51.120;13.136;2022-09-09T07:38:28;99003.22;;;21.23;55.81
54329;BME280;40710;51.120;13.136;2022-09-09T07:40:53;99011.25;;;21.05;56.04
54329;BME280;40710;51.120;13.136;2022-09-09T07:43:17;99012.19;;;20.70;57.44
54329;BME280;40710;51.120;13.136;2022-09-09T07:45:42;99019.03;;;20.90;56.92
54329;BME280;40710;51.120;13.136;2022-09-09T07:48:08;99014.72;;;20.71;57.42
54329;BME280;40710;51.120;13.136;2022-09-09T07:50:33;99012.34;;;20.68;57.33
54329;BME280;40710;51.120;13.136;2022-09-09T07:52:57;99015.69;;;20.70;57.17
54329;BME280;40710;51.120;13.136;2022-09-09T07:55:22;99022.91;;;20.96;56.51
54329;BME280;40710;51.120;13.136;2022-09-09T07:57:49;99010.75;;;21.02;56.68
54329;BME280;40710;51.120;13.136;2022-09-09T08:00:14;99023.19;;;20.93;56.81
54329;BME280;40710;51.120;13.136;2022-09-09T08:02:39;99019.50;;;21.12;56.13
54329;BME280;40710;51.120;13.136;2022-09-09T08:05:03;99025.34;;;20.89;56.89
54329;BME280;40710;51.120;13.136;2022-09-09T08:07:28;99025.88;;;20.93;56.56
54329;BME280;40710;51.120;13.136;2022-09-09T08:09:53;99020.59;;;21.01;56.48
54329;BME280;40710;51.120;13.136;2022-09-09T08:12:19;99036.56;;;20.93;56.71
54329;BME280;40710;51.120;13.136;2022-09-09T08:14:44;99027.72;;;20.92;56.86
54329;BME280;40710;51.120;13.136;2022-09-09T08:17:08;99048.28;;;20.74;57.91
54329;BME280;40710;51.120;13.136;2022-09-09T08:19:32;99028.31;;;22.07;54.74
54329;BME280;40710;51.120;13.136;2022-09-09T08:21:59;99030.94;;;21.99;54.62
54329;BME280;40710;51.120;13.136;2022-09-09T08:24:25;99035.88;;;21.69;55.24
54329;BME280;40710;51.120;13.136;2022-09-09T08:26:50;99039.53;;;21.68;55.16
54329;BME280;40710;51.120;13.136;2022-09-09T08:29:15;99063.13;;;21.73;56.61
54329;BME280;40710;51.120;13.136;2022-09-09T08:31:54;99048.19;;;22.05;57.20
54329;BME280;40710;51.120;13.136;2022-09-09T08:34:19;99057.22;;;22.12;57.23
54329;BME280;40710;51.120;13.136;2022-09-09T08:36:45;99059.72;;;21.63;57.08
54329;BME280;40710;51.120;13.136;2022-09-09T08:39:11;99069.47;;;21.72;57.73
54329;BME280;40710;51.120;13.136;2022-09-09T08:52:29;99102.44;;;21.46;60.97
54329;BME280;40710;51.120;13.136;2022-09-09T08:55:05;99109.13;;;20.52;63.44
54329;BME280;40710;51.120;13.136;2022-09-09T08:57:34;99096.81;;;20.24;64.22
54329;BME280;40710;51.120;13.136;2022-09-09T08:59:59;99079.28;;;21.11;61.65
54329;BME280;40710;51.120;13.136;2022-09-09T09:05:40;99081.59;;;21.06;62.46
54329;BME280;40710;51.120;13.136;2022-09-09T09:08:26;99099.34;;;20.25;64.68
54329;BME280;40710;51.120;13.136;2022-09-09T09:10:55;99106.41;;;20.16;66.31
54329;BME280;40710;51.120;13.136;2022-09-09T09:13:34;99106.16;;;20.10;66.79
54329;BME280;40710;51.120;13.136;2022-09-09T09:16:18;99102.75;;;20.17;66.51
54329;BME280;40710;51.120;13.136;2022-09-09T09:18:44;99106.41;;;20.80;65.58
54329;BME280;40710;51.120;13.136;2022-09-09T09:21:14;99076.97;;;21.42;63.30
54329;BME280;40710;51.120;13.136;2022-09-09T09:23:48;99073.56;;;22.43;61.98
54329;BME280;40710;51.120;13.136;2022-09-09T09:26:16;99043.69;;;23.62;57.92
54329;BME280;40710;51.120;13.136;2022-09-09T09:28:41;99035.13;;;24.52;53.75
54329;BME280;40710;51.120;13.136;2022-09-09T09:31:09;99029.25;;;25.47;52.95
54329;BME280;40710;51.120;13.136;2022-09-09T09:33:47;99034.06;;;25.37;52.38
54329;BME280;40710;51.120;13.136;2022-09-09T09:36:13;99031.94;;;25.33;51.08
54329;BME280;40710;51.120;13.136;2022-09-09T09:38:52;99028.06;;;24.97;50.82
54329;BME280;40710;51.120;13.136;2022-09-09T09:41:28;99031.44;;;24.76;50.79
54329;BME280;40710;51.120;13.136;2022-09-09T09:43:54;99036.69;;;24.46;52.81
54329;BME280;40710;51.120;13.136;2022-09-09T09:46:20;99025.34;;;25.35;50.97
54329;BME280;40710;51.120;13.136;2022-09-09T09:49:05;99009.34;;;26.30;48.57
54329;BME280;40710;51.120;13.136;2022-09-09T09:51:33;99009.28;;;27.51;48.21
54329;BME280;40710;51.120;13.136;2022-09-09T09:56:37;99009.00;;;28.76;43.56
54329;BME280;40710;51.120;13.136;2022-09-09T09:59:01;99004.81;;;29.92;41.25
54329;BME280;40710;51.120;13.136;2022-09-09T10:01:28;99014.66;;;29.86;42.32
54329;BME280;40710;51.120;13.136;2022-09-09T10:03:57;98997.81;;;30.48;39.71
54329;BME280;40710;51.120;13.136;2022-09-09T10:06:36;99000.16;;;30.69;39.75
54329;BME280;40710;51.120;13.136;2022-09-09T10:09:03;99001.78;;;31.02;39.32
54329;BME280;40710;51.120;13.136;2022-09-09T10:14:25;99003.63;;;31.82;36.58
54329;BME280;40710;51.120;13.136;2022-09-09T10:19:34;98999.00;;;32.01;35.73
54329;BME280;40710;51.120;13.136;2022-09-09T10:22:15;98987.56;;;32.11;33.98
54329;BME280;40710;51.120;13.136;2022-09-09T10:28:10;98998.75;;;31.54;36.03
54329;BME280;40710;51.120;13.136;2022-09-09T10:30:59;98995.66;;;31.99;35.71
54329;BME280;40710;51.120;13.136;2022-09-09T10:33:59;99001.38;;;30.10;36.05
54329;BME280;40710;51.120;13.136;2022-09-09T10:36:27;98981.16;;;31.57;34.85
54329;BME280;40710;51.120;13.136;2022-09-09T10:38:57;98973.44;;;32.21;34.15
54329;BME280;40710;51.120;13.136;2022-09-09T10:41:45;98973.28;;;32.58;33.01
54329;BME280;40710;51.120;13.136;2022-09-09T10:47:14;98969.50;;;33.06;33.50
54329;BME280;40710;51.120;13.136;2022-09-09T10:49:48;98961.09;;;32.60;32.42
54329;BME280;40710;51.120;13.136;2022-09-09T10:55:17;98955.03;;;33.82;31.77
54329;BME280;40710;51.120;13.136;2022-09-09T10:57:48;98967.41;;;33.72;31.42
54329;BME280;40710;51.120;13.136;2022-09-09T11:00:24;98953.28;;;32.52;32.54
54329;BME280;40710;51.120;13.136;2022-09-09T11:02:58;98955.31;;;32.69;33.11
54329;BME280;40710;51.120;13.136;2022-09-09T11:05:30;98948.41;;;33.49;32.16
54329;BME280;40710;51.120;13.136;2022-09-09T11:08:14;98961.09;;;32.96;32.07
54329;BME280;40710;51.120;13.136;2022-09-09T11:13:17;98984.13;;;30.36;36.08
54329;BME280;40710;51.120;13.136;2022-09-09T11:15:50;98991.88;;;29.35;37.25
54329;BME280;40710;51.120;13.136;2022-09-09T11:18:20;98993.81;;;28.81;38.37
54329;BME280;40710;51.120;13.136;2022-09-09T11:20:52;98985.91;;;28.87;39.39
54329;BME280;40710;51.120;13.136;2022-09-09T11:23:26;98985.50;;;28.70;39.88
54329;BME280;40710;51.120;13.136;2022-09-09T11:25:55;98980.88;;;28.30;40.94
54329;BME280;40710;51.120;13.136;2022-09-09T11:28:26;98990.63;;;28.11;40.89
54329;BME280;40710;51.120;13.136;2022-09-09T11:34:01;98993.09;;;26.88;41.75
54329;BME280;40710;51.120;13.136;2022-09-09T11:36:38;98982.09;;;27.52;41.11
54329;BME280;40710;51.120;13.136;2022-09-09T11:39:37;98984.75;;;27.46;40.33
54329;BME280;40710;51.120;13.136;2022-09-09T11:42:28;98983.59;;;27.68;41.34
54329;BME280;40710;51.120;13.136;2022-09-09T11:44:52;98977.81;;;27.78;40.50
54329;BME280;40710;51.120;13.136;2022-09-09T11:49:50;98977.50;;;27.18;41.48
54329;BME280;40710;51.120;13.136;2022-09-09T11:52:36;98981.31;;;26.67;42.18
54329;BME280;40710;51.120;13.136;2022-09-09T11:55:10;98979.47;;;27.72;40.83
54329;BME280;40710;51.120;13.136;2022-09-09T11:57:36;98975.28;;;28.52;38.98
54329;BME280;40710;51.120;13.136;2022-09-09T12:00:01;98966.50;;;29.10;37.86
54329;BME280;40710;51.120;13.136;2022-09-09T12:02:28;98962.53;;;29.32;36.99
54329;BME280;40710;51.120;13.136;2022-09-09T12:04:56;98963.94;;;29.41;37.46
54329;BME280;40710;51.120;13.136;2022-09-09T12:08:10;98968.84;;;28.53;37.74
54329;BME280;40710;51.120;13.136;2022-09-09T12:10:29;98983.66;;;27.88;40.69
54329;BME280;40710;51.120;13.136;2022-09-09T12:13:07;98985.31;;;27.83;41.07
54329;BME280;40710;51.120;13.136;2022-09-09T12:15:33;98991.88;;;27.25;41.89
54329;BME280;40710;51.120;13.136;2022-09-09T12:17:58;98985.66;;;27.66;42.00
54329;BME280;40710;51.120;13.136;2022-09-09T12:20:36;98980.66;;;28.25;41.30
54329;BME280;40710;51.120;13.136;2022-09-09T12:23:24;98976.13;;;28.99;40.56
54329;BME280;40710;51.120;13.136;2022-09-09T12:26:07;98962.16;;;29.15;38.72
54329;BME280;40710;51.120;13.136;2022-09-09T12:31:36;98942.03;;;29.56;36.78
54329;BME280;40710;51.120;13.136;2022-09-09T12:34:11;98941.81;;;28.79;36.88
54329;BME280;40710;51.120;13.136;2022-09-09T12:36:39;98947.03;;;28.67;38.25
54329;BME280;40710;51.120;13.136;2022-09-09T12:39:29;98932.75;;;29.39;36.76
54329;BME280;40710;51.120;13.136;2022-09-09T12:41:55;98937.47;;;29.95;36.85
54329;BME280;40710;51.120;13.136;2022-09-09T12:44:21;98922.97;;;30.15;35.16
54329;BME280;40710;51.120;13.136;2022-09-09T12:46:46;98922.16;;;29.83;34.05
54329;BME280;40710;51.120;13.136;2022-09-09T12:49:29;98920.34;;;30.33;33.72
54329;BME280;40710;51.120;13.136;2022-09-09T12:51:58;98913.75;;;30.73;32.99
54329;BME280;40710;51.120;13.136;2022-09-09T12:54:22;98920.69;;;29.80;33.39
54329;BME280;40710;51.120;13.136;2022-09-09T12:56:48;98910.13;;;30.35;34.00
54329;BME280;40710;51.120;13.136;2022-09-09T12:59:34;98909.69;;;30.07;32.58
54329;BME280;40710;51.120;13.136;2022-09-09T13:01:59;98901.75;;;30.62;31.81
54329;BME280;40710;51.120;13.136;2022-09-09T13:04:24;98901.22;;;30.22;32.52
54329;BME280;40710;51.120;13.136;2022-09-09T13:06:48;98889.25;;;30.80;32.27
54329;BME280;40710;51.120;13.136;2022-09-09T13:09:13;98884.00;;;30.85;31.23
54329;BME280;40710;51.120;13.136;2022-09-09T13:11:40;98887.53;;;31.41;31.58
54329;BME280;40710;51.120;13.136;2022-09-09T13:14:06;98884.81;;;30.85;31.11
54329;BME280;40710;51.120;13.136;2022-09-09T13:16:32;98878.41;;;30.36;31.45
54329;BME280;40710;51.120;13.136;2022-09-09T13:18:59;98896.06;;;30.13;32.28
54329;BME280;40710;51.120;13.136;2022-09-09T13:21:35;98885.41;;;30.19;32.73
54329;BME280;40710;51.120;13.136;2022-09-09T13:24:01;98886.25;;;30.88;31.96
54329;BME280;40710;51.120;13.136;2022-09-09T13:26:29;98879.47;;;30.35;32.42
54329;BME280;40710;51.120;13.136;2022-09-09T13:28:54;98884.84;;;31.04;31.61
54329;BME280;40710;51.120;13.136;2022-09-09T13:31:27;98893.44;;;30.32;31.85
54329;BME280;40710;51.120;13.136;2022-09-09T13:33:52;98885.75;;;30.98;31.44
54329;BME280;40710;51.120;13.136;2022-09-09T13:36:28;98888.47;;;30.54;32.25
54329;BME280;40710;51.120;13.136;2022-09-09T13:38:55;98886.84;;;30.90;32.18
54329;BME280;40710;51.120;13.136;2022-09-09T13:41:43;98882.03;;;31.78;31.60
54329;BME280;40710;51.120;13.136;2022-09-09T13:44:21;98875.44;;;31.85;30.43
54329;BME280;40710;51.120;13.136;2022-09-09T13:46:47;98871.94;;;31.55;30.24
54329;BME280;40710;51.120;13.136;2022-09-09T13:54:06;98879.41;;;31.71;30.14
54329;BME280;40710;51.120;13.136;2022-09-09T13:56:34;98881.75;;;31.37;30.58
54329;BME280;40710;51.120;13.136;2022-09-09T13:58:59;98881.81;;;31.79;30.80
54329;BME280;40710;51.120;13.136;2022-09-09T14:01:23;98879.00;;;32.40;29.46
54329;BME280;40710;51.120;13.136;2022-09-09T14:03:48;98873.81;;;32.62;29.44
54329;BME280;40710;51.120;13.136;2022-09-09T14:06:12;98874.16;;;32.66;29.65
54329;BME280;40710;51.120;13.136;2022-09-09T14:08:37;98854.72;;;32.15;29.69
54329;BME280;40710;51.120;13.136;2022-09-09T14:11:03;98861.47;;;32.12;29.26
54329;BME280;40710;51.120;13.136;2022-09-09T14:13:28;98869.28;;;32.20;29.18
54329;BME280;40710;51.120;13.136;2022-09-09T14:15:52;98863.84;;;32.32;28.30
54329;BME280;40710;51.120;13.136;2022-09-09T14:18:17;98855.34;;;33.40;27.27
54329;BME280;40710;51.120;13.136;2022-09-09T14:20:42;98864.22;;;33.35;27.56
54329;BME280;40710;51.120;13.136;2022-09-09T14:23:10;98866.91;;;32.95;28.27
54329;BME280;40710;51.120;13.136;2022-09-09T14:25:34;98868.56;;;32.25;28.70